Time;durP1;ratioP1;P1;durP2;ratioP2;P2;SDS_P1;SDS_P2;PMS_P1;PMS_P2;Temp;Humidity;BMP_temperature;BMP_pressure;BME280_temperature;BME280_humidity;BME280_pressure;Samples;Min_cycle;Max_cycle;Signal;HPM_P1;HPM_P2
2023/01/24 00:02:29;;;;;;;19.83;6.90;;;;;;;3.57;100.00;101880.03;31102457;28;20057;-78
2023/01/24 00:17:30;;;;;;;14.20;6.73;;;;;;;3.48;100.00;101863.22;31083464;28;20050;-78
2023/01/24 00:32:32;;;;;;;16.20;6.17;;;;;;;3.37;100.00;101867.41;31136694;28;20192;-78
2023/01/24 00:47:34;;;;;;;18.67;6.80;;;;;;;3.33;100.00;101861.88;31098870;28;20041;-78
2023/01/24 01:02:37;;;;;;;18.07;6.27;;;;;;;3.36;100.00;101877.34;31085045;28;20073;-78
2023/01/24 01:17:38;;;;;;;15.30;5.90;;;;;;;3.26;100.00;101882.31;31094163;28;20523;-78
2023/01/24 01:32:40;;;;;;;13.27;6.10;;;;;;;3.30;100.00;101899.34;31091587;28;20088;-78
2023/01/24 01:47:42;;;;;;;17.10;6.07;;;;;;;3.43;100.00;101898.31;31064126;28;20045;-77
2023/01/24 02:02:54;;;;;;;16.27;5.17;;;;;;;3.54;100.00;101921.00;31104894;28;20123;-78
2023/01/24 02:17:57;;;;;;;9.10;5.07;;;;;;;3.61;100.00;101921.25;31042096;28;20050;-77
2023/01/24 06:36:58;;;;;;;14.63;5.17;;;;;;;1.32;100.00;102036.97;31524493;27;20907;-74
2023/01/24 06:52:00;;;;;;;17.90;5.83;;;;;;;0.53;100.00;102034.16;31431491;28;20067;-76
2023/01/24 07:07:05;;;;;;;16.80;5.67;;;;;;;0.18;100.00;101999.16;31423415;28;20102;-77
2023/01/24 07:22:12;;;;;;;10.23;5.63;;;;;;;0.14;100.00;101992.03;31431997;28;20102;-76
2023/01/24 07:37:14;;;;;;;21.40;6.97;;;;;;;0.24;100.00;102000.59;31390615;28;20051;-77
2023/01/24 07:52:16;;;;;;;27.37;7.37;;;;;;;0.71;100.00;101995.75;31395430;28;20545;-78
2023/01/24 08:07:18;;;;;;;23.17;8.17;;;;;;;0.86;100.00;101987.34;31346939;28;20045;-78
2023/01/24 08:22:30;;;;;;;31.70;7.70;;;;;;;1.18;100.00;101999.59;31412022;28;20398;-77
2023/01/24 08:37:32;;;;;;;15.57;7.23;;;;;;;1.77;100.00;101996.66;31369479;28;20072;-77
2023/01/24 08:52:34;;;;;;;28.43;9.03;;;;;;;1.87;100.00;101985.66;31315497;28;20060;-75
2023/01/24 09:07:36;;;;;;;26.43;9.80;;;;;;;1.90;100.00;101987.69;31356185;28;20041;-89
2023/01/24 09:22:39;;;;;;;26.43;8.63;;;;;;;1.65;100.00;101965.91;31362920;28;20061;-84
2023/01/24 09:37:42;;;;;;;24.43;9.30;;;;;;;1.81;100.00;101968.16;31357889;28;20041;-86
2023/01/24 09:52:50;;;;;;;28.83;10.13;;;;;;;1.92;100.00;101964.03;31350648;28;20049;-77
2023/01/24 10:08:14;;;;;;;31.77;9.57;;;;;;;1.38;100.00;101949.34;31361267;28;20498;-78
2023/01/24 14:30:18;;;;;;;21.20;9.40;;;;;;;2.24;100.00;101784.03;31753687;27;20384;-80
2023/01/24 14:45:25;;;;;;;20.47;9.83;;;;;;;2.17;100.00;101834.66;31708572;28;20147;-78
2023/01/24 15:00:26;;;;;;;22.52;9.20;;;;;;;2.01;100.00;101833.59;31697852;28;20044;-80
2023/01/24 15:15:29;;;;;;;23.53;9.17;;;;;;;2.06;100.00;101846.81;31703888;28;20544;-80
2023/01/24 15:30:31;;;;;;;34.00;16.27;;;;;;;2.42;100.00;101859.03;31621582;28;20127;-82
2023/01/24 15:45:37;;;;;;;19.17;8.77;;;;;;;2.36;100.00;101872.59;31652253;28;20055;-79
2023/01/24 16:00:40;;;;;;;17.53;7.27;;;;;;;2.34;100.00;101882.09;31629052;28;20044;-78
2023/01/24 16:15:41;;;;;;;12.73;5.53;;;;;;;2.33;100.00;101902.72;31616916;28;20105;-81
2023/01/24 16:30:43;;;;;;;16.80;6.13;;;;;;;2.14;100.00;101918.34;31611399;28;20063;-80
2023/01/24 16:45:47;;;;;;;18.30;5.67;;;;;;;2.12;100.00;101942.00;31568572;28;20139;-78
2023/01/24 17:00:49;;;;;;;8.73;4.50;;;;;;;1.96;100.00;101943.56;31614281;28;20048;-80
2023/01/24 17:15:51;;;;;;;15.57;6.20;;;;;;;1.39;100.00;101935.63;31570558;28;20064;-81
2023/01/24 17:30:53;;;;;;;16.63;8.87;;;;;;;1.46;100.00;101957.38;31568144;28;20138;-78
2023/01/24 17:45:59;;;;;;;16.70;9.03;;;;;;;1.85;100.00;101961.06;31594071;28;20090;-77
2023/01/24 18:01:01;;;;;;;11.77;6.87;;;;;;;1.74;100.00;101957.09;31579549;28;20048;-73
2023/01/24 18:16:06;;;;;;;19.53;8.50;;;;;;;1.56;100.00;101950.94;31590271;28;20063;-74
2023/01/24 18:31:10;;;;;;;17.63;8.10;;;;;;;1.70;100.00;101941.66;31609946;28;20040;-75
2023/01/24 18:46:13;;;;;;;18.80;7.70;;;;;;;1.92;100.00;101926.56;31562418;28;20117;-76
2023/01/24 19:01:18;;;;;;;26.20;11.87;;;;;;;1.90;100.00;101932.22;31584362;28;20123;-76
2023/01/24 19:16:20;;;;;;;19.67;7.60;;;;;;;1.68;100.00;101927.00;31580080;28;20575;-74
2023/01/24 19:31:22;;;;;;;24.87;8.37;;;;;;;1.64;100.00;101916.16;31665151;28;20121;-75
2023/01/24 19:46:24;;;;;;;17.50;8.27;;;;;;;1.67;100.00;101930.78;31575027;28;20079;-74
2023/01/24 20:01:26;;;;;;;15.27;8.10;;;;;;;1.65;100.00;101917.72;31604350;28;20054;-75
2023/01/24 20:16:30;;;;;;;14.70;7.10;;;;;;;1.82;100.00;101924.19;31604922;28;20052;-75
2023/01/24 20:31:31;;;;;;;17.67;9.30;;;;;;;1.76;100.00;101917.41;31590662;28;20079;-75
2023/01/24 20:46:34;;;;;;;18.03;7.17;;;;;;;1.69;100.00;101907.94;31595606;28;20064;-75
2023/01/24 21:01:36;;;;;;;14.57;7.53;;;;;;;1.56;100.00;101914.25;31617231;28;20052;-74
2023/01/24 21:16:39;;;;;;;21.73;8.93;;;;;;;1.55;100.00;101907.31;31583837;28;20059;-73
2023/01/24 21:31:41;;;;;;;20.87;9.43;;;;;;;1.37;100.00;101905.72;31575167;28;20051;-75
2023/01/24 21:46:43;;;;;;;23.00;10.17;;;;;;;1.44;100.00;101898.00;31605424;28;20055;-77
2023/01/24 22:01:52;;;;;;;18.40;10.70;;;;;;;1.62;100.00;101890.81;31622964;28;20051;-77
